createdAt,value
2019-04-11T00:00:19.505Z,41.40
2019-04-11T00:01:56.397Z,40.23
2019-04-11T00:03:31.082Z,41.53
2019-04-11T00:05:06.418Z,39.87
2019-04-11T00:06:41.428Z,39.42
2019-04-11T00:08:15.764Z,42.58
2019-04-11T00:09:51.212Z,39.53
2019-04-11T00:11:26.001Z,33.83
2019-04-11T00:13:01.275Z,35.03
2019-04-11T00:14:36.628Z,27.52
2019-04-11T00:16:11.106Z,22.97
2019-04-11T00:17:45.982Z,21.87
2019-04-11T00:19:21.147Z,19.17
2019-04-11T00:20:56.175Z,19.85
2019-04-11T00:22:31.328Z,20.32
2019-04-11T00:24:06.743Z,19.07
2019-04-11T00:25:42.041Z,20.88
2019-04-11T00:27:17.081Z,25.25
2019-04-11T00:28:52.097Z,22.67
2019-04-11T00:30:28.209Z,24.12
2019-04-11T00:32:05.868Z,28.17
2019-04-11T00:33:38.581Z,28.85
2019-04-11T00:35:12.665Z,26.50
2019-04-11T00:36:46.424Z,22.90
2019-04-11T00:38:21.443Z,27.30
2019-04-11T00:39:56.295Z,32.40
2019-04-11T00:41:31.251Z,30.43
2019-04-11T00:43:07.353Z,26.90
2019-04-11T00:44:41.226Z,28.47
2019-04-11T00:46:14.877Z,27.00
2019-04-11T00:47:49.521Z,27.65
2019-04-11T00:49:24.198Z,28.03
2019-04-11T00:50:57.882Z,30.17
2019-04-11T00:52:32.155Z,28.17
2019-04-11T00:54:06.689Z,32.00
2019-04-11T00:55:40.510Z,36.93
2019-04-11T00:57:14.900Z,31.40
2019-04-11T00:58:49.859Z,33.60
2019-04-11T01:00:23.913Z,41.30
2019-04-11T01:01:58.834Z,32.20
2019-04-11T01:03:32.578Z,35.17
2019-04-11T01:05:07.557Z,33.13
2019-04-11T01:06:42.557Z,32.07
2019-04-11T01:08:16.322Z,31.27
2019-04-11T01:09:50.701Z,32.50
2019-04-11T01:11:24.945Z,31.73
2019-04-11T01:12:59.441Z,34.10
2019-04-11T01:14:34.044Z,38.60
2019-04-11T01:16:20.182Z,36.35
2019-04-11T01:17:54.051Z,35.43
2019-04-11T01:19:28.969Z,38.30
2019-04-11T01:21:04.057Z,36.23
2019-04-11T01:22:38.548Z,36.23
2019-04-11T01:24:12.535Z,37.67
2019-04-11T01:25:48.501Z,38.78
2019-04-11T01:27:23.626Z,35.33
2019-04-11T01:28:58.690Z,34.10
2019-04-11T01:30:38.796Z,35.73
2019-04-11T01:32:13.893Z,39.80
2019-04-11T01:33:48.381Z,39.40
2019-04-11T01:35:23.529Z,41.20
2019-04-11T01:36:58.166Z,40.33
2019-04-11T01:38:34.653Z,41.87
2019-04-11T01:40:09.848Z,43.83
2019-04-11T01:41:44.772Z,39.15
2019-04-11T01:43:19.863Z,38.10
2019-04-11T01:44:54.838Z,37.78
2019-04-11T01:46:29.809Z,35.52
2019-04-11T01:48:17.412Z,37.78
2019-04-11T01:49:52.490Z,37.63
2019-04-11T01:51:27.969Z,36.50
2019-04-11T01:53:02.625Z,38.53
2019-04-11T01:54:37.608Z,32.98
2019-04-11T01:56:14.782Z,31.93
2019-04-11T01:57:49.901Z,37.10
2019-04-11T01:59:24.278Z,34.05
2019-04-11T02:01:00.712Z,36.87
2019-04-11T02:02:42.368Z,36.60
2019-04-11T02:04:19.473Z,35.35
2019-04-11T02:05:53.834Z,38.42
2019-04-11T02:07:28.892Z,34.78
2019-04-11T02:09:05.973Z,32.03
2019-04-11T02:10:41.234Z,31.05
2019-04-11T02:12:16.161Z,29.18
2019-04-11T02:13:50.360Z,31.27
2019-04-11T02:15:26.483Z,29.18
2019-04-11T02:17:02.395Z,35.78
2019-04-11T02:18:37.287Z,38.20
2019-04-11T02:20:12.540Z,29.60
2019-04-11T02:21:47.927Z,28.20
2019-04-11T02:23:23.988Z,29.27
2019-04-11T02:25:00.503Z,31.20
2019-04-11T02:26:37.611Z,56.42
2019-04-11T02:28:14.726Z,38.55
2019-04-11T02:29:50.840Z,40.12
2019-04-11T02:31:26.314Z,43.15
2019-04-11T02:33:00.818Z,44.90
2019-04-11T02:34:35.247Z,38.83
2019-04-11T02:36:11.844Z,37.55
2019-04-11T02:37:47.603Z,29.65
2019-04-11T02:39:22.925Z,25.60
2019-04-11T02:40:57.873Z,27.07
2019-04-11T02:42:32.984Z,32.13
2019-04-11T02:44:28.634Z,26.80
2019-04-11T02:45:56.973Z,25.40
2019-04-11T02:47:24.231Z,27.32
2019-04-11T02:48:59.382Z,26.30
2019-04-11T02:50:34.522Z,25.80
2019-04-11T02:52:11.163Z,25.45
2019-04-11T02:53:47.132Z,24.67
2019-04-11T02:55:22.222Z,26.87
2019-04-11T02:56:57.736Z,25.45
2019-04-11T02:58:34.450Z,25.45
2019-04-11T03:00:10.571Z,23.83
2019-04-11T03:01:46.441Z,26.65
2019-04-11T03:03:23.265Z,25.35
2019-04-11T03:04:57.694Z,27.77
2019-04-11T03:06:33.250Z,26.90
2019-04-11T03:08:11.418Z,23.47
2019-04-11T03:09:44.036Z,25.23
2019-04-11T03:11:21.393Z,25.77
2019-04-11T03:12:56.837Z,26.23
2019-04-11T03:14:46.087Z,26.90
2019-04-11T03:16:21.771Z,28.23
2019-04-11T03:17:44.623Z,25.82
2019-04-11T03:19:35.782Z,27.33
2019-04-11T03:20:57.629Z,27.57
2019-04-11T03:22:30.051Z,26.77
2019-04-11T03:24:06.136Z,29.07
2019-04-11T03:25:40.616Z,26.10
2019-04-11T03:27:15.518Z,26.47
2019-04-11T03:28:54.016Z,26.67
2019-04-11T03:30:44.695Z,25.23
2019-04-11T03:32:40.080Z,26.73
2019-04-11T03:34:31.413Z,25.30
2019-04-11T03:37:19.336Z,26.93
2019-04-11T03:38:48.236Z,25.57
2019-04-11T03:40:22.430Z,25.37
2019-04-11T03:41:52.362Z,22.77
2019-04-11T03:43:24.153Z,24.93
2019-04-11T03:44:54.815Z,24.90
2019-04-11T03:46:40.144Z,25.60
2019-04-11T03:48:10.842Z,25.00
2019-04-11T03:49:43.438Z,26.67
2019-04-11T03:51:08.833Z,28.37
2019-04-11T03:52:45.030Z,29.87
2019-04-11T03:54:18.996Z,31.00
2019-04-11T03:55:53.857Z,28.15
2019-04-11T03:57:27.787Z,28.63
2019-04-11T03:59:04.072Z,20.50
2019-04-11T04:00:42.510Z,21.73
2019-04-11T04:02:16.829Z,19.97
2019-04-11T04:03:53.937Z,19.83
2019-04-11T04:05:32.222Z,21.30
2019-04-11T04:07:04.938Z,20.52
2019-04-11T04:08:40.399Z,20.70
2019-04-11T04:10:15.748Z,20.53
2019-04-11T04:11:54.444Z,20.10
2019-04-11T04:13:31.799Z,21.20
2019-04-11T04:15:29.616Z,22.20
2019-04-11T04:17:06.977Z,23.30
2019-04-11T04:18:43.787Z,26.60
2019-04-11T04:20:21.486Z,23.87
2019-04-11T04:22:16.074Z,26.33
2019-04-11T04:23:51.867Z,25.47
2019-04-11T04:25:28.410Z,38.93
2019-04-11T04:27:04.639Z,113.22
2019-04-11T04:28:40.773Z,53.57
2019-04-11T04:30:15.907Z,48.13
2019-04-11T04:31:51.055Z,48.50
2019-04-11T04:33:28.774Z,39.73
2019-04-11T04:35:02.760Z,32.27
2019-04-11T04:36:37.915Z,29.03
2019-04-11T04:38:13.500Z,28.83
2019-04-11T04:39:51.861Z,28.40
2019-04-11T04:41:37.382Z,33.63
2019-04-11T04:43:07.087Z,26.25
2019-04-11T04:44:40.435Z,27.40
2019-04-11T04:46:29.856Z,29.77
2019-04-11T04:47:56.866Z,30.90
2019-04-11T04:49:27.905Z,31.07
2019-04-11T04:51:06.249Z,31.17
2019-04-11T04:52:38.189Z,24.33
2019-04-11T04:54:14.193Z,21.33
2019-04-11T04:55:50.201Z,21.97
2019-04-11T04:57:24.706Z,25.72
2019-04-11T04:59:02.585Z,23.77
2019-04-11T05:00:37.689Z,22.05
2019-04-11T05:02:12.947Z,14.70
2019-04-11T05:03:48.636Z,19.83
2019-04-11T05:05:24.382Z,17.52
2019-04-11T05:06:59.162Z,19.60
2019-04-11T05:08:34.713Z,17.75
2019-04-11T05:10:11.108Z,17.20
2019-04-11T05:11:46.662Z,17.87
2019-04-11T05:13:21.663Z,22.60
2019-04-11T05:14:56.681Z,19.15
2019-04-11T05:16:30.924Z,16.50
2019-04-11T05:18:06.098Z,16.23
2019-04-11T05:19:41.147Z,16.90
2019-04-11T05:21:15.426Z,17.15
2019-04-11T05:22:49.715Z,17.25
2019-04-11T05:24:24.012Z,17.40
2019-04-11T05:25:57.865Z,15.63
2019-04-11T05:27:32.175Z,15.80
2019-04-11T05:29:06.494Z,17.45
2019-04-11T05:30:40.199Z,19.27
2019-04-11T05:32:15.430Z,18.90
2019-04-11T05:33:49.764Z,19.83
2019-04-11T05:35:24.920Z,17.62
2019-04-11T05:36:59.420Z,16.48
2019-04-11T05:38:33.882Z,16.52
2019-04-11T05:40:09.282Z,21.90
2019-04-11T05:41:46.642Z,23.20
2019-04-11T05:43:19.915Z,23.02
2019-04-11T05:44:54.780Z,23.12
2019-04-11T05:46:35.539Z,21.52
2019-04-11T05:48:06.388Z,21.63
2019-04-11T05:49:52.640Z,20.65
2019-04-11T05:51:36.949Z,22.07
2019-04-11T05:53:03.889Z,22.73
2019-04-11T05:54:46.440Z,20.57
2019-04-11T05:56:20.308Z,21.70
2019-04-11T05:57:55.915Z,18.20
2019-04-11T05:59:30.723Z,19.87
2019-04-11T06:01:27.325Z,19.87
2019-04-11T06:03:03.807Z,20.05
2019-04-11T06:04:40.571Z,21.82
2019-04-11T06:06:36.086Z,21.85
2019-04-11T06:08:09.863Z,21.00
2019-04-11T06:09:46.263Z,21.73
2019-04-11T06:11:24.043Z,19.07
2019-04-11T06:13:05.353Z,19.80
2019-04-11T06:14:43.648Z,16.55
2019-04-11T06:16:18.791Z,15.45
2019-04-11T06:17:54.291Z,22.48
2019-04-11T06:19:30.595Z,28.12
2019-04-11T06:21:22.594Z,33.47
2019-04-11T06:22:58.446Z,36.38
2019-04-11T06:24:50.171Z,33.15
2019-04-11T06:26:32.387Z,38.75
2019-04-11T06:28:09.502Z,44.98
2019-04-11T06:29:52.882Z,45.95
2019-04-11T06:31:45.486Z,41.20
2019-04-11T06:33:22.598Z,41.23
2019-04-11T06:35:03.992Z,41.63
2019-04-11T06:36:41.207Z,41.30
2019-04-11T06:38:26.809Z,45.63
2019-04-11T06:40:04.099Z,38.90
2019-04-11T06:41:43.095Z,38.70
2019-04-11T06:43:25.691Z,35.38
2019-04-11T06:45:02.237Z,38.83
2019-04-11T06:46:49.549Z,43.95
2019-04-11T06:48:35.965Z,43.50
2019-04-11T06:50:28.314Z,45.20
2019-04-11T06:52:04.567Z,40.00
2019-04-11T06:53:40.437Z,42.13
2019-04-11T06:55:32.966Z,39.95
2019-04-11T06:57:09.379Z,42.07
2019-04-11T06:58:51.024Z,46.35
2019-04-11T07:00:23.739Z,65.33
2019-04-11T07:02:08.817Z,56.60
2019-04-11T07:03:53.180Z,68.70
2019-04-11T07:05:29.291Z,64.87
2019-04-11T07:07:06.487Z,45.23
2019-04-11T07:08:49.043Z,44.77
2019-04-11T07:10:40.062Z,49.30
2019-04-11T07:12:15.871Z,57.15
2019-04-11T07:13:51.167Z,53.40
2019-04-11T07:15:27.225Z,53.23
2019-04-11T07:17:18.962Z,51.03
2019-04-11T07:19:00.611Z,50.23
2019-04-11T07:20:45.736Z,51.17
2019-04-11T07:22:39.521Z,58.42
2019-04-11T07:24:24.686Z,60.33
2019-04-11T07:26:00.779Z,64.95
2019-04-11T07:27:36.568Z,52.73
2019-04-11T07:29:29.256Z,51.10
2019-04-11T07:31:21.649Z,56.90
2019-04-11T07:32:57.968Z,51.23
2019-04-11T07:34:40.222Z,56.25
2019-04-11T07:36:33.805Z,50.03
2019-04-11T07:38:10.071Z,55.92
2019-04-11T07:40:02.971Z,52.58
2019-04-11T07:41:39.976Z,54.77
2019-04-11T07:43:16.920Z,51.58
2019-04-11T07:44:55.403Z,61.63
2019-04-11T07:46:31.139Z,71.40
2019-04-11T07:48:07.195Z,62.03
2019-04-11T07:49:50.215Z,54.23
2019-04-11T07:51:25.418Z,70.22
2019-04-11T07:53:03.061Z,62.85
2019-04-11T07:54:38.884Z,61.65
2019-04-11T07:56:15.086Z,54.73
2019-04-11T07:58:08.443Z,57.15
2019-04-11T08:00:00.149Z,54.13
2019-04-11T08:01:36.100Z,60.40
2019-04-11T08:03:27.720Z,49.93
2019-04-11T08:05:11.047Z,34.08
2019-04-11T08:06:59.041Z,29.90
2019-04-11T08:08:44.637Z,27.55
2019-04-11T08:10:23.214Z,36.45
2019-04-11T08:12:00.275Z,54.73
2019-04-11T08:13:36.818Z,34.13
2019-04-11T08:15:30.002Z,36.63
2019-04-11T08:17:28.103Z,37.73
2019-04-11T08:18:57.856Z,36.37
2019-04-11T08:20:53.216Z,25.23
2019-04-11T08:22:39.240Z,28.20
2019-04-11T08:24:16.345Z,28.42
2019-04-11T08:26:06.027Z,30.32
2019-04-11T08:27:51.884Z,26.17
2019-04-11T08:29:20.042Z,28.32
2019-04-11T08:30:59.306Z,27.80
2019-04-11T08:32:38.200Z,22.25
2019-04-11T08:34:13.263Z,25.48
2019-04-11T08:36:05.181Z,26.40
2019-04-11T08:37:41.416Z,45.05
2019-04-11T08:39:17.620Z,38.33
2019-04-11T08:41:09.379Z,34.88
2019-04-11T08:42:46.505Z,28.70
2019-04-11T08:44:20.897Z,29.45
2019-04-11T08:45:56.277Z,32.10
2019-04-11T08:47:42.011Z,33.15
2019-04-11T08:49:29.000Z,56.08
2019-04-11T08:51:05.084Z,31.05
2019-04-11T08:52:42.279Z,33.15
2019-04-11T08:54:27.400Z,36.73
2019-04-11T08:56:03.908Z,36.30
2019-04-11T08:57:44.512Z,35.00
2019-04-11T08:59:21.583Z,36.53
2019-04-11T09:01:00.148Z,40.80
2019-04-11T09:02:35.370Z,34.08
2019-04-11T09:04:28.039Z,36.53
2019-04-11T09:06:04.357Z,35.68
2019-04-11T09:07:41.421Z,33.33
2019-04-11T09:09:33.581Z,50.15
2019-04-11T09:11:12.833Z,49.83
2019-04-11T09:12:48.934Z,58.63
2019-04-11T09:14:41.285Z,72.47
2019-04-11T09:16:34.022Z,50.23
2019-04-11T09:18:11.861Z,46.80
2019-04-11T09:19:55.103Z,43.52
2019-04-11T09:21:43.056Z,54.33
2019-04-11T09:23:17.658Z,67.25
2019-04-11T09:25:08.971Z,78.00
2019-04-11T09:27:02.360Z,64.12
2019-04-11T09:28:39.611Z,60.03
2019-04-11T09:30:19.240Z,56.80
2019-04-11T09:32:04.399Z,60.95
2019-04-11T09:33:44.927Z,55.88
2019-04-11T09:35:24.096Z,50.38
2019-04-11T09:37:00.977Z,55.40
2019-04-11T09:38:38.157Z,52.15
2019-04-11T09:40:34.023Z,55.30
2019-04-11T09:42:11.565Z,67.12
2019-04-11T09:43:46.369Z,71.02
2019-04-11T09:45:30.844Z,76.77
2019-04-11T09:47:24.195Z,85.55
2019-04-11T09:49:16.823Z,79.30
2019-04-11T09:50:56.462Z,76.60
2019-04-11T09:52:33.215Z,84.05
2019-04-11T09:54:26.200Z,77.50
2019-04-11T09:56:02.611Z,85.90
2019-04-11T09:57:38.546Z,88.22
2019-04-11T09:59:14.456Z,92.30
2019-04-11T10:01:06.636Z,83.40
2019-04-11T10:03:00.845Z,62.43
2019-04-11T10:04:37.243Z,58.60
2019-04-11T10:06:14.072Z,85.47
2019-04-11T10:07:55.381Z,84.60
2019-04-11T10:09:32.316Z,79.67
2019-04-11T10:11:26.030Z,127.92
2019-04-11T10:13:18.622Z,102.35
2019-04-11T10:14:53.707Z,81.97
2019-04-11T10:16:29.923Z,80.07
2019-04-11T10:18:27.164Z,72.45
2019-04-11T10:19:57.115Z,70.08
2019-04-11T10:21:39.536Z,71.37
2019-04-11T10:23:30.736Z,81.37
2019-04-11T10:25:10.686Z,90.17
2019-04-11T10:26:53.109Z,90.32
2019-04-11T10:28:45.960Z,98.37
2019-04-11T10:30:39.808Z,98.50
2019-04-11T10:32:17.001Z,100.85
2019-04-11T10:33:53.193Z,141.95
2019-04-11T10:35:46.170Z,172.37
2019-04-11T10:37:21.955Z,142.72
2019-04-11T10:39:15.285Z,139.47
2019-04-11T10:41:00.896Z,129.57
2019-04-11T10:42:39.012Z,132.65
2019-04-11T10:44:15.899Z,128.62
2019-04-11T10:45:58.794Z,123.90
2019-04-11T10:47:35.236Z,123.10
2019-04-11T10:49:17.798Z,121.92
2019-04-11T10:51:00.352Z,116.10
2019-04-11T10:52:36.355Z,82.97
2019-04-11T10:54:12.038Z,72.85
2019-04-11T10:55:51.737Z,79.27
2019-04-11T10:57:30.386Z,76.37
2019-04-11T10:59:05.117Z,70.03
2019-04-11T11:00:57.972Z,54.90
2019-04-11T11:02:33.848Z,53.20
2019-04-11T11:04:09.694Z,52.17
2019-04-11T11:05:55.511Z,50.88
2019-04-11T11:07:32.820Z,187.12
2019-04-11T11:09:10.096Z,119.08
2019-04-11T11:10:44.400Z,135.88
2019-04-11T11:12:29.614Z,128.25
2019-04-11T11:14:06.689Z,119.17
2019-04-11T11:15:43.941Z,231.02
2019-04-11T11:17:43.170Z,172.02
2019-04-11T11:19:37.522Z,125.15
2019-04-11T11:20:56.441Z,82.37
2019-04-11T11:22:33.162Z,99.90
2019-04-11T11:24:23.958Z,101.42
2019-04-11T11:26:06.899Z,81.92
2019-04-11T11:27:43.711Z,88.78
2019-04-11T11:29:20.530Z,93.00
2019-04-11T11:31:14.082Z,82.80
2019-04-11T11:32:49.587Z,87.05
2019-04-11T11:34:32.604Z,76.33
2019-04-11T11:36:17.751Z,74.22
2019-04-11T11:37:53.444Z,83.95
2019-04-11T11:39:33.456Z,86.25
2019-04-11T11:41:16.341Z,93.37
2019-04-11T11:43:10.588Z,86.08
2019-04-11T11:44:49.544Z,75.95
2019-04-11T11:46:44.542Z,82.62
2019-04-11T11:48:24.801Z,78.97
2019-04-11T11:50:04.098Z,77.62
2019-04-11T11:51:58.010Z,82.12
2019-04-11T11:53:47.660Z,88.37
2019-04-11T11:55:29.511Z,109.07
2019-04-11T11:57:06.538Z,98.45
2019-04-11T11:58:51.844Z,96.90
2019-04-11T12:00:25.514Z,95.87
2019-04-11T12:02:04.388Z,103.90
2019-04-11T12:03:50.786Z,104.72
2019-04-11T12:05:30.934Z,93.03
2019-04-11T12:07:08.573Z,80.95
2019-04-11T12:08:56.171Z,66.00
2019-04-11T12:10:33.992Z,102.53
2019-04-11T12:12:13.556Z,91.97
2019-04-11T12:13:49.141Z,96.90
2019-04-11T12:15:28.826Z,71.47
2019-04-11T12:17:06.709Z,74.50
2019-04-11T12:18:49.781Z,66.70
2019-04-11T12:20:25.578Z,64.58
2019-04-11T12:22:02.173Z,81.53
2019-04-11T12:24:03.447Z,71.57
2019-04-11T12:25:34.702Z,66.80
2019-04-11T12:27:20.565Z,65.30
2019-04-11T12:28:57.511Z,68.15
2019-04-11T12:30:37.394Z,53.68
2019-04-11T12:32:14.818Z,67.72
2019-04-11T12:34:06.590Z,70.78
2019-04-11T12:35:52.689Z,73.35
2019-04-11T12:37:31.753Z,79.53
2019-04-11T12:39:24.281Z,80.97
2019-04-11T12:41:08.293Z,87.82
2019-04-11T12:42:43.603Z,86.92
2019-04-11T12:44:31.984Z,88.82
2019-04-11T12:46:29.793Z,84.92
2019-04-11T12:48:00.288Z,65.32
2019-04-11T12:49:39.160Z,48.90
2019-04-11T12:51:31.824Z,49.08
2019-04-11T12:53:08.866Z,58.60
2019-04-11T12:54:53.984Z,60.45
2019-04-11T12:56:42.190Z,81.72
2019-04-11T12:58:26.919Z,78.80
2019-04-11T13:00:05.841Z,92.17
2019-04-11T13:01:54.236Z,78.20
2019-04-11T13:03:46.384Z,82.10
2019-04-11T13:05:22.207Z,92.15
2019-04-11T13:07:04.105Z,73.52
2019-04-11T13:08:55.730Z,85.77
2019-04-11T13:10:30.332Z,101.02
2019-04-11T13:12:09.371Z,95.83
2019-04-11T13:13:48.240Z,102.70
2019-04-11T13:15:30.140Z,85.20
2019-04-11T13:17:08.755Z,79.90
2019-04-11T13:19:03.145Z,66.72
2019-04-11T13:20:48.742Z,76.57
2019-04-11T13:22:26.134Z,85.95
2019-04-11T13:24:18.931Z,83.33
2019-04-11T13:26:06.571Z,81.08
2019-04-11T13:27:42.508Z,88.65
2019-04-11T13:29:21.625Z,87.62
2019-04-11T13:31:13.584Z,132.43
2019-04-11T13:32:49.510Z,100.42
2019-04-11T13:34:25.659Z,95.85
2019-04-11T13:36:05.475Z,99.07
2019-04-11T13:37:57.809Z,98.58
2019-04-11T13:39:32.864Z,85.75
2019-04-11T13:41:24.287Z,89.90
2019-04-11T13:43:06.080Z,79.27
2019-04-11T13:44:42.426Z,82.20
2019-04-11T13:46:24.516Z,80.15
2019-04-11T13:48:06.574Z,89.50
2019-04-11T13:49:42.447Z,77.67
2019-04-11T13:51:18.609Z,98.75
2019-04-11T13:53:11.025Z,74.30
2019-04-11T13:54:46.911Z,62.25
2019-04-11T13:56:22.922Z,60.40
2019-04-11T13:58:14.967Z,65.15
2019-04-11T13:59:55.751Z,60.57
2019-04-11T14:01:30.833Z,59.75
2019-04-11T14:03:15.713Z,64.70
2019-04-11T14:04:57.118Z,57.33
2019-04-11T14:06:31.414Z,63.78
2019-04-11T14:08:05.786Z,65.87
2019-04-11T14:09:42.212Z,67.62
2019-04-11T14:11:19.521Z,61.40
2019-04-11T14:13:01.089Z,55.73
2019-04-11T14:14:35.716Z,67.92
2019-04-11T14:16:14.969Z,90.22
2019-04-11T14:18:07.111Z,83.67
2019-04-11T14:19:45.915Z,56.33
2019-04-11T14:21:21.802Z,48.75
2019-04-11T14:23:00.296Z,57.75
2019-04-11T14:24:48.433Z,66.28
2019-04-11T14:26:42.130Z,85.72
2019-04-11T14:28:18.063Z,182.30
2019-04-11T14:29:54.055Z,165.05
2019-04-11T14:31:46.448Z,210.17
2019-04-11T14:33:23.590Z,192.45
2019-04-11T14:35:15.154Z,108.90
2019-04-11T14:37:07.212Z,106.90
2019-04-11T14:38:47.589Z,158.00
2019-04-11T14:40:36.983Z,161.82
2019-04-11T14:42:31.243Z,116.45
2019-04-11T14:44:06.631Z,122.60
2019-04-11T14:45:45.499Z,121.10
2019-04-11T14:47:38.985Z,75.65
2019-04-11T14:49:12.947Z,75.62
2019-04-11T14:50:51.673Z,62.40
2019-04-11T14:52:36.610Z,71.95
2019-04-11T14:54:24.408Z,72.82
2019-04-11T14:56:03.383Z,71.05
2019-04-11T14:57:48.407Z,41.75
2019-04-11T14:59:24.981Z,52.83
2019-04-11T15:00:59.513Z,42.85
2019-04-11T15:02:50.827Z,36.73
2019-04-11T15:04:32.643Z,33.20
2019-04-11T15:06:08.507Z,45.12
2019-04-11T15:07:43.687Z,48.33
2019-04-11T15:09:23.225Z,45.28
2019-04-11T15:11:04.835Z,42.27
2019-04-11T15:12:40.196Z,54.33
2019-04-11T15:14:32.780Z,51.23
2019-04-11T15:16:14.417Z,51.48
2019-04-11T15:17:49.593Z,51.63
2019-04-11T15:19:24.783Z,64.22
2019-04-11T15:21:18.650Z,48.30
2019-04-11T15:22:54.616Z,41.83
2019-04-11T15:24:29.013Z,49.53
2019-04-11T15:26:21.317Z,51.28
2019-04-11T15:27:59.952Z,58.80
2019-04-11T15:29:34.333Z,52.43
2019-04-11T15:31:18.479Z,55.08
2019-04-11T15:33:05.363Z,55.50
2019-04-11T15:34:41.334Z,58.33
2019-04-11T15:36:25.574Z,54.98
2019-04-11T15:40:07.775Z,45.12
2019-04-11T15:41:46.128Z,46.35
2019-04-11T15:43:42.171Z,47.55
2019-04-11T15:45:34.431Z,48.70
2019-04-11T15:47:19.671Z,48.65
2019-04-11T15:49:20.078Z,42.30
2019-04-11T15:50:51.510Z,31.35
2019-04-11T15:52:25.753Z,40.92
2019-04-11T15:54:01.618Z,55.30
2019-04-11T15:55:43.581Z,107.65
2019-04-11T15:57:26.899Z,60.17
2019-04-11T15:59:12.868Z,56.13
2019-04-11T16:00:55.589Z,60.60
2019-04-11T16:02:34.438Z,50.33
2019-04-11T16:04:19.387Z,27.42
2019-04-11T16:06:05.028Z,31.93
2019-04-11T16:07:57.620Z,40.83
2019-04-11T16:09:31.963Z,23.40
2019-04-11T16:11:12.165Z,29.35
2019-04-11T16:13:01.857Z,36.53
2019-04-11T16:14:36.148Z,42.50
2019-04-11T16:38:43.077Z,80.93
2019-04-11T16:40:24.918Z,40.90
2019-04-11T16:42:04.906Z,67.25
2019-04-11T16:43:40.831Z,72.32
2019-04-11T16:45:16.864Z,74.75
2019-04-11T16:47:08.962Z,84.95
2019-04-11T16:48:43.292Z,92.30
2019-04-11T16:50:17.579Z,92.47
2019-04-11T16:51:52.182Z,98.22
2019-04-11T16:53:29.520Z,68.10
2019-04-11T16:55:04.619Z,84.25
2019-04-11T16:56:38.923Z,79.82
2019-04-11T16:58:17.017Z,87.00
2019-04-11T16:59:52.084Z,90.12
2019-04-11T17:01:26.366Z,94.07
2019-04-11T17:03:00.599Z,98.72
2019-04-11T17:04:34.946Z,103.07
2019-04-11T17:06:19.360Z,96.15
2019-04-11T17:07:58.072Z,102.58
2019-04-11T17:09:33.951Z,117.67
2019-04-11T17:11:10.549Z,203.65
2019-04-11T17:12:44.916Z,138.47
2019-04-11T17:14:27.916Z,132.75
2019-04-11T17:15:59.838Z,140.45
2019-04-11T17:17:33.232Z,139.00
2019-04-11T17:19:12.449Z,139.30
2019-04-11T17:20:48.024Z,157.72
2019-04-11T17:22:22.320Z,140.95
2019-04-11T17:23:58.237Z,143.30
2019-04-11T17:25:32.491Z,134.52
2019-04-11T17:27:06.747Z,143.02
2019-04-11T17:28:43.349Z,147.28
2019-04-11T17:30:17.321Z,149.18
2019-04-11T17:31:51.563Z,142.53
2019-04-11T17:33:28.634Z,141.40
2019-04-11T17:35:03.328Z,126.02
2019-04-11T17:36:37.849Z,118.45
2019-04-11T17:38:12.162Z,149.77
2019-04-11T17:39:47.343Z,139.72
2019-04-11T17:41:22.734Z,131.47
2019-04-11T17:42:57.352Z,127.15
2019-04-11T17:44:32.576Z,129.60
2019-04-11T17:46:06.884Z,125.00
2019-04-11T17:47:41.151Z,131.35
2019-04-11T17:49:16.116Z,126.30
2019-04-11T17:50:50.424Z,108.32
2019-04-11T17:52:26.098Z,147.05
2019-04-11T17:54:01.515Z,148.90
2019-04-11T17:55:37.608Z,141.45
2019-04-11T17:57:11.871Z,159.85
2019-04-11T17:58:46.394Z,152.57
2019-04-11T18:00:22.423Z,187.85
2019-04-11T18:01:59.646Z,183.45
2019-04-11T18:03:35.420Z,150.22
2019-04-11T18:05:09.740Z,161.15
2019-04-11T18:06:46.913Z,112.88
2019-04-11T18:08:21.075Z,143.78
2019-04-11T18:09:55.987Z,117.80
2019-04-11T18:11:31.008Z,124.38
2019-04-11T18:13:05.292Z,114.40
2019-04-11T18:14:40.765Z,128.45
2019-04-11T18:16:15.078Z,131.10
2019-04-11T18:17:49.329Z,139.72
2019-04-11T18:19:23.672Z,130.37
2019-04-11T18:20:58.308Z,126.15
2019-04-11T18:22:34.001Z,110.70
2019-04-11T18:24:08.407Z,89.17
2019-04-11T18:25:42.740Z,77.22
2019-04-11T18:27:17.188Z,69.03
2019-04-11T18:28:52.022Z,47.30
2019-04-11T18:30:27.055Z,49.90
2019-04-11T18:32:01.412Z,42.73
2019-04-11T18:33:35.841Z,44.42
2019-04-11T18:35:10.154Z,39.88
2019-04-11T18:36:45.876Z,45.20
2019-04-11T18:38:20.224Z,47.40
2019-04-11T18:39:54.747Z,53.95
2019-04-11T18:41:28.967Z,51.80
2019-04-11T18:43:03.242Z,52.90
2019-04-11T18:44:38.199Z,46.42
2019-04-11T18:46:12.548Z,44.50
2019-04-11T18:47:46.855Z,47.17
2019-04-11T18:49:21.727Z,47.80
2019-04-11T18:50:56.943Z,43.52
2019-04-11T18:52:31.487Z,43.25
2019-04-11T18:54:07.689Z,46.10
2019-04-11T18:55:41.550Z,43.28
2019-04-11T18:57:15.890Z,45.50
2019-04-11T18:58:50.688Z,46.08
2019-04-11T19:00:25.476Z,47.30
2019-04-11T19:02:01.349Z,47.08
2019-04-11T19:03:36.606Z,44.03
2019-04-11T19:05:13.332Z,48.35
2019-04-11T19:06:47.979Z,49.20
2019-04-11T19:08:22.244Z,50.78
2019-04-11T19:09:56.512Z,48.17
2019-04-11T19:11:31.111Z,48.38
2019-04-11T19:13:05.494Z,46.75
2019-04-11T19:14:39.708Z,47.78
2019-04-11T19:16:16.122Z,72.60
2019-04-11T19:17:49.976Z,58.38
2019-04-11T19:19:24.323Z,62.25
2019-04-11T19:20:58.717Z,53.73
2019-04-11T19:22:37.597Z,186.28
2019-04-11T19:24:12.966Z,138.60
2019-04-11T19:25:47.215Z,158.23
2019-04-11T19:27:21.469Z,176.78
2019-04-11T19:28:55.830Z,151.42
2019-04-11T19:30:30.302Z,157.15
2019-04-11T19:32:04.641Z,211.47
2019-04-11T19:33:40.080Z,138.35
2019-04-11T19:35:14.515Z,106.80
2019-04-11T19:36:50.199Z,105.80
2019-04-11T19:38:26.069Z,111.25
2019-04-11T19:40:00.496Z,84.97
2019-04-11T19:41:34.768Z,85.30
2019-04-11T19:43:09.408Z,77.67
2019-04-11T19:44:49.342Z,74.25
2019-04-11T19:46:21.106Z,74.80
2019-04-11T19:47:55.396Z,72.35
2019-04-11T19:49:29.745Z,72.90
2019-04-11T19:51:03.980Z,61.18
2019-04-11T19:52:45.134Z,61.30
2019-04-11T19:54:14.295Z,138.03
2019-04-11T19:55:52.330Z,110.65
2019-04-11T19:57:26.398Z,117.85
2019-04-11T19:59:00.699Z,130.32
2019-04-11T20:00:35.447Z,94.32
2019-04-11T20:02:09.964Z,95.60
2019-04-11T20:03:46.063Z,103.87
2019-04-11T20:05:20.469Z,95.77
2019-04-11T20:06:54.744Z,98.60
2019-04-11T20:08:29.243Z,91.55
2019-04-11T20:10:06.900Z,63.10
2019-04-11T20:11:41.146Z,70.42
2019-04-11T20:13:15.498Z,79.15
2019-04-11T20:14:49.982Z,64.62
2019-04-11T20:16:24.227Z,62.43
2019-04-11T20:17:58.545Z,65.72
2019-04-11T20:19:32.831Z,66.40
2019-04-11T20:21:08.284Z,63.83
2019-04-11T20:22:44.019Z,64.65
2019-04-11T20:24:19.281Z,70.60
2019-04-11T20:25:58.906Z,64.40
2019-04-11T20:27:33.471Z,77.70
2019-04-11T20:29:07.718Z,74.35
2019-04-11T20:30:42.030Z,69.45
2019-04-11T20:32:16.316Z,83.97
2019-04-11T20:33:51.127Z,68.37
2019-04-11T20:35:28.965Z,66.55
2019-04-11T20:37:00.768Z,70.90
2019-04-11T20:38:35.089Z,63.48
2019-04-11T20:40:09.503Z,60.95
2019-04-11T20:41:44.106Z,62.60
2019-04-11T20:43:19.468Z,61.80
2019-04-11T20:44:53.705Z,61.92
2019-04-11T20:46:29.207Z,57.83
2019-04-11T20:48:04.242Z,81.17
2019-04-11T20:49:40.136Z,90.07
2019-04-11T20:51:14.352Z,64.65
2019-04-11T20:52:50.016Z,54.45
2019-04-11T20:54:24.340Z,47.40
2019-04-11T20:55:58.598Z,47.45
2019-04-11T20:57:32.819Z,43.78
2019-04-11T20:59:10.071Z,42.90
2019-04-11T21:00:50.072Z,40.35
2019-04-11T21:02:19.360Z,39.05
2019-04-11T21:03:53.612Z,39.08
2019-04-11T21:05:30.952Z,42.17
2019-04-11T21:07:05.518Z,41.48
2019-04-11T21:08:39.765Z,43.50
2019-04-11T21:10:14.092Z,44.38
2019-04-11T21:11:51.356Z,44.67
2019-04-11T21:13:25.626Z,46.88
2019-04-11T21:14:59.852Z,48.48
2019-04-11T21:16:33.577Z,49.57
2019-04-11T21:18:08.002Z,46.28
2019-04-11T21:19:41.753Z,50.47
2019-04-11T21:21:15.418Z,54.20
2019-04-11T21:22:49.134Z,60.30
2019-04-11T21:24:23.700Z,54.80
2019-04-11T21:25:59.106Z,49.93
2019-04-11T21:27:33.965Z,50.38
2019-04-11T21:29:08.251Z,52.17
2019-04-11T21:30:42.810Z,55.83